Time;durP1;ratioP1;P1;durP2;ratioP2;P2;SDS_P1;SDS_P2;PMS_P1;PMS_P2;Temp;Humidity;BMP_temperature;BMP_pressure;BME280_temperature;BME280_humidity;BME280_pressure;Samples;Min_cycle;Max_cycle;Signal;HPM_P1;HPM_P2
2021/11/22 00:01:29;;;;;;;9.80;4.47;;;;;;;13.78;41.25;103086.06;5051740;28;20072;-70
2021/11/22 00:03:54;;;;;;;10.10;3.83;;;;;;;13.75;41.11;103089.38;5052019;28;20029;-70
2021/11/22 00:06:20;;;;;;;7.72;3.40;;;;;;;13.70;41.27;103094.06;5051750;28;20052;-70
2021/11/22 00:08:46;;;;;;;9.40;3.50;;;;;;;13.72;41.35;103095.41;5052008;28;20098;-70
2021/11/22 00:11:12;;;;;;;7.40;3.70;;;;;;;13.64;41.57;103095.16;5051797;28;20036;-70
2021/11/22 00:13:38;;;;;;;14.38;4.90;;;;;;;13.71;41.26;103095.69;5051732;28;20472;-70
2021/11/22 00:16:04;;;;;;;8.98;3.80;;;;;;;13.62;41.40;103097.34;5051691;28;20391;-69
2021/11/22 00:18:29;;;;;;;9.35;3.25;;;;;;;13.58;41.62;103097.06;5051947;28;20033;-70
2021/11/22 00:20:55;;;;;;;11.27;4.15;;;;;;;13.54;41.85;103096.00;5055536;28;20064;-70
2021/11/22 00:23:20;;;;;;;6.70;3.50;;;;;;;13.63;41.76;103088.84;5055203;28;20029;-70
2021/11/22 00:25:46;;;;;;;8.85;3.03;;;;;;;13.63;41.90;103099.81;5055241;28;20518;-70
2021/11/22 00:28:12;;;;;;;8.77;3.72;;;;;;;13.77;41.66;103106.41;5055090;28;20433;-69
2021/11/22 00:30:37;;;;;;;12.20;3.65;;;;;;;13.71;41.88;103102.00;5055164;28;20029;-72
2021/11/22 00:33:04;;;;;;;6.85;2.97;;;;;;;13.66;42.10;103099.25;5055009;28;20045;-70
2021/11/22 00:35:33;;;;;;;6.35;3.10;;;;;;;13.62;42.49;103097.34;5054589;28;20033;-69
2021/11/22 00:38:04;;;;;;;7.88;3.25;;;;;;;13.69;42.12;103098.72;5054953;28;20043;-69
2021/11/22 00:40:31;;;;;;;13.68;3.92;;;;;;;13.70;42.21;103094.88;5054921;28;20067;-69
2021/11/22 00:42:57;;;;;;;12.50;3.80;;;;;;;13.66;42.16;103109.44;5054801;28;20491;-69
2021/11/22 00:45:23;;;;;;;6.53;2.70;;;;;;;13.60;42.20;103114.94;5055078;28;20053;-69
2021/11/22 00:47:48;;;;;;;6.03;3.35;;;;;;;13.83;41.60;103115.47;5054782;28;20464;-68
2021/11/22 00:50:15;;;;;;;7.72;3.03;;;;;;;13.86;41.65;103115.72;5054753;28;20021;-70
2021/11/22 00:52:41;;;;;;;10.45;2.90;;;;;;;13.83;41.75;103124.53;5054862;28;20033;-69
2021/11/22 00:55:08;;;;;;;7.45;2.53;;;;;;;13.88;41.57;103120.94;5054960;28;20025;-69
2021/11/22 00:57:34;;;;;;;11.32;3.78;;;;;;;13.84;42.14;103128.09;5054664;28;20032;-69
2021/11/22 00:59:59;;;;;;;8.07;2.72;;;;;;;13.88;42.05;103123.69;5054622;28;20029;-69
2021/11/22 01:02:26;;;;;;;11.10;3.00;;;;;;;13.89;42.04;103126.16;5054711;28;20054;-70
2021/11/22 01:04:51;;;;;;;11.82;3.60;;;;;;;13.95;42.05;103123.41;5054419;28;20024;-71
2021/11/22 01:07:17;;;;;;;9.30;3.30;;;;;;;13.91;42.11;103116.81;5054396;28;20017;-71
2021/11/22 01:09:43;;;;;;;11.15;4.20;;;;;;;13.80;42.10;103119.56;5053119;28;20025;-71
2021/11/22 01:12:10;;;;;;;8.88;4.97;;;;;;;13.71;41.98;103126.75;5054317;28;20378;-70
2021/11/22 01:14:36;;;;;;;7.75;3.72;;;;;;;13.79;41.66;103128.09;5054232;28;20036;-70
2021/11/22 01:17:03;;;;;;;7.22;4.00;;;;;;;13.57;41.98;103134.69;5054521;28;20024;-70
2021/11/22 01:19:29;;;;;;;9.77;4.63;;;;;;;13.50;41.80;103134.16;5054190;28;20025;-70
2021/11/22 01:21:55;;;;;;;8.20;4.75;;;;;;;13.38;41.60;103133.63;5054148;28;20033;-71
2021/11/22 01:24:21;;;;;;;13.05;5.55;;;;;;;13.29;41.66;103125.06;5054139;28;20033;-70
2021/11/22 01:26:47;;;;;;;10.90;6.03;;;;;;;13.27;41.74;103130.03;5054066;28;20025;-70
2021/11/22 01:29:12;;;;;;;10.82;5.13;;;;;;;13.23;41.70;103133.59;5054254;28;20132;-70
2021/11/22 01:31:38;;;;;;;11.35;6.68;;;;;;;13.19;41.77;103125.03;5052954;28;20091;-70
2021/11/22 01:34:04;;;;;;;10.93;8.38;;;;;;;13.12;42.00;103129.97;5053710;28;20063;-70
2021/11/22 01:36:30;;;;;;;15.25;7.85;;;;;;;13.32;41.79;103138.28;5053732;28;20036;-71
2021/11/22 01:38:55;;;;;;;9.82;7.55;;;;;;;13.36;41.70;103134.97;5054020;28;20036;-70
2021/11/22 01:41:21;;;;;;;11.48;6.05;;;;;;;13.33;41.78;103139.91;5053844;28;20029;-71
2021/11/22 01:43:47;;;;;;;8.70;4.45;;;;;;;13.36;41.68;103138.53;5053641;28;20403;-71
2021/11/22 01:46:18;;;;;;;8.52;4.07;;;;;;;13.41;41.68;103143.22;5053549;28;20048;-71
2021/11/22 01:48:44;;;;;;;9.55;3.75;;;;;;;13.38;41.72;103147.34;5053794;28;20387;-71
2021/11/22 01:51:10;;;;;;;8.95;2.97;;;;;;;13.36;41.50;103154.19;5053635;28;20036;-70
2021/11/22 01:53:35;;;;;;;12.02;4.15;;;;;;;13.34;41.71;103154.47;5053435;28;20036;-70
2021/11/22 01:56:02;;;;;;;8.20;3.58;;;;;;;13.27;41.74;103152.00;5053463;28;20032;-71
2021/11/22 01:58:27;;;;;;;9.88;3.75;;;;;;;13.23;41.81;103144.59;5053444;28;20464;-71
2021/11/22 02:00:55;;;;;;;12.27;5.03;;;;;;;13.18;41.99;103152.78;5053306;28;20044;-71
2021/11/22 02:03:21;;;;;;;7.53;3.22;;;;;;;13.17;41.92;103159.38;5053585;28;20036;-70
2021/11/22 02:05:52;;;;;;;8.30;3.38;;;;;;;13.15;42.05;103165.13;5053370;28;20033;-71
2021/11/22 02:08:20;;;;;;;7.97;4.97;;;;;;;13.14;41.97;103170.88;5053295;28;20027;-70
2021/11/22 02:10:47;;;;;;;8.82;5.43;;;;;;;13.13;41.82;103177.47;5053475;28;20059;-70
2021/11/22 02:13:14;;;;;;;9.73;4.43;;;;;;;12.99;42.08;103174.41;5053046;28;20115;-70
2021/11/22 02:15:40;;;;;;;12.38;4.60;;;;;;;12.98;42.02;103175.50;5052594;28;20029;-70
2021/11/22 02:18:07;;;;;;;10.02;4.07;;;;;;;12.97;41.93;103168.38;5052917;28;20036;-70
2021/11/22 02:20:33;;;;;;;14.15;5.20;;;;;;;12.95;41.99;103167.81;5052843;28;20055;-71
2021/11/22 02:23:02;;;;;;;9.18;4.07;;;;;;;12.89;41.97;103175.19;5060787;28;20048;-70
2021/11/22 02:25:31;;;;;;;8.13;3.97;;;;;;;12.91;41.75;103173.00;5066267;28;20036;-70
2021/11/22 02:27:58;;;;;;;9.18;3.97;;;;;;;12.79;42.06;103175.19;5073116;28;20021;-70
2021/11/22 02:30:31;;;;;;;9.77;4.40;;;;;;;12.67;42.42;103180.06;5072775;28;20111;-70
2021/11/22 02:32:59;;;;;;;12.38;4.10;;;;;;;12.62;42.43;103186.38;5072604;28;20051;-70
2021/11/22 02:35:25;;;;;;;11.15;4.00;;;;;;;12.52;42.47;103182.72;5072687;28;20028;-69
2021/11/22 02:37:50;;;;;;;9.95;3.33;;;;;;;12.45;42.48;103185.72;5066373;28;20036;-70
2021/11/22 02:40:16;;;;;;;5.80;3.10;;;;;;;12.54;41.91;103184.09;5063560;28;20025;-70
2021/11/22 02:42:44;;;;;;;11.95;3.10;;;;;;;12.65;42.03;103177.59;5061312;28;20031;-70
2021/11/22 02:45:15;;;;;;;11.55;3.95;;;;;;;12.61;42.26;103176.47;5062447;28;20074;-70
2021/11/22 02:47:41;;;;;;;6.15;3.13;;;;;;;12.46;42.38;103179.94;5063176;28;20487;-70
2021/11/22 02:50:11;;;;;;;5.90;4.05;;;;;;;12.50;42.28;103185.75;5061846;28;20013;-70
2021/11/22 02:52:37;;;;;;;10.23;4.40;;;;;;;12.51;42.35;103192.88;5060076;28;20025;-70
2021/11/22 02:55:05;;;;;;;8.00;4.38;;;;;;;12.44;42.67;103197.78;5055020;28;20052;-70
2021/11/22 02:57:30;;;;;;;8.65;3.95;;;;;;;12.44;42.41;103201.34;5062889;28;20030;-70
2021/11/22 02:59:56;;;;;;;8.93;4.65;;;;;;;12.40;42.63;103199.41;5061679;28;20089;-78
2021/11/22 03:02:21;;;;;;;11.18;5.15;;;;;;;12.37;42.65;103183.47;5061802;28;20017;-70
2021/11/22 03:04:47;;;;;;;11.93;5.68;;;;;;;12.37;42.54;103181.56;5063167;28;20040;-70
2021/11/22 03:07:13;;;;;;;8.38;5.40;;;;;;;12.37;42.57;103178.00;5061074;28;20051;-70
2021/11/22 03:09:40;;;;;;;12.68;6.25;;;;;;;12.35;42.51;103175.50;5062115;28;20033;-70
2021/11/22 03:12:10;;;;;;;11.82;6.55;;;;;;;12.32;42.56;103186.16;5062749;28;20058;-70
2021/11/22 03:14:36;;;;;;;8.25;4.72;;;;;;;12.43;42.26;103187.91;5059180;28;20036;-70
2021/11/22 03:17:03;;;;;;;12.13;5.30;;;;;;;12.51;42.10;103192.88;5061340;28;20044;-70
2021/11/22 03:19:30;;;;;;;7.40;4.50;;;;;;;12.45;42.16;103194.75;5061457;28;20024;-70
2021/11/22 03:21:56;;;;;;;9.50;4.47;;;;;;;12.45;42.15;103194.75;5061228;28;20049;-70
2021/11/22 03:24:22;;;;;;;9.15;4.57;;;;;;;12.43;42.02;103191.47;5061617;28;20047;-70
2021/11/22 03:26:48;;;;;;;6.80;4.35;;;;;;;12.39;42.30;103190.34;5062661;28;20032;-77
2021/11/22 03:29:13;;;;;;;9.43;5.05;;;;;;;12.36;42.17;103181.81;5060942;28;20035;-71
2021/11/22 03:31:40;;;;;;;6.80;4.65;;;;;;;12.36;42.06;103184.56;5061458;28;20086;-70
2021/11/22 03:34:07;;;;;;;10.30;4.07;;;;;;;12.27;42.36;103187.00;5062796;28;20075;-70
2021/11/22 03:36:33;;;;;;;7.03;3.17;;;;;;;12.32;42.07;103189.78;5058504;28;20105;-70
2021/11/22 03:39:01;;;;;;;6.30;3.42;;;;;;;12.31;42.31;103198.22;5061834;28;20147;-71
2021/11/22 03:41:30;;;;;;;7.07;3.33;;;;;;;12.30;42.20;103191.94;5062541;28;20064;-78
2021/11/22 03:44:01;;;;;;;7.40;3.08;;;;;;;12.30;42.05;103196.59;5061179;28;20464;-78
2021/11/22 03:46:27;;;;;;;6.20;2.60;;;;;;;12.20;42.46;103192.69;5060477;28;20033;-72
2021/11/22 03:48:53;;;;;;;7.82;2.58;;;;;;;12.27;42.34;103197.13;5062303;28;20031;-70
2021/11/22 03:51:20;;;;;;;7.30;2.85;;;;;;;12.28;42.22;103198.78;5061708;28;20032;-70
2021/11/22 03:53:47;;;;;;;6.53;3.25;;;;;;;12.27;42.31;103205.34;5043520;28;20044;-71
2021/11/22 03:56:13;;;;;;;10.10;3.33;;;;;;;12.25;42.24;103202.06;5061803;28;20029;-71
2021/11/22 03:58:39;;;;;;;9.23;2.63;;;;;;;12.26;42.29;103200.97;5065559;28;20100;-70
2021/11/22 04:01:05;;;;;;;5.70;2.78;;;;;;;12.27;42.35;103208.91;5066161;28;20047;-70
2021/11/22 04:03:31;;;;;;;6.50;2.40;;;;;;;12.27;42.23;103205.34;5062884;28;20110;-71
2021/11/22 04:05:57;;;;;;;7.78;2.72;;;;;;;12.26;42.12;103207.28;5065384;28;20025;-72
2021/11/22 04:08:23;;;;;;;6.38;3.00;;;;;;;12.09;42.53;103201.97;5065847;28;20033;-73
2021/11/22 04:10:49;;;;;;;10.13;3.00;;;;;;;12.17;42.24;103200.63;5063925;28;20025;-69
2021/11/22 04:13:15;;;;;;;8.32;3.30;;;;;;;12.16;42.03;103202.53;5065449;28;20451;-70
2021/11/22 04:15:43;;;;;;;11.35;3.33;;;;;;;12.15;42.22;103211.84;5065396;28;20029;-71
2021/11/22 04:18:09;;;;;;;9.05;3.15;;;;;;;12.15;42.30;103211.03;5063801;28;20064;-71
2021/11/22 04:20:35;;;;;;;7.28;2.70;;;;;;;12.15;42.15;103214.59;5065472;28;20447;-70
2021/11/22 04:23:02;;;;;;;7.72;3.80;;;;;;;12.12;42.17;103215.13;5065013;28;20053;-69
2021/11/22 04:25:28;;;;;;;10.10;3.58;;;;;;;12.09;42.28;103215.66;5063578;28;20029;-70
2021/11/22 04:27:54;;;;;;;6.47;3.25;;;;;;;11.92;42.66;103221.25;5064842;28;20074;-70
2021/11/22 04:30:19;;;;;;;12.80;3.70;;;;;;;12.00;42.50;103219.94;5064442;28;20559;-70
2021/11/22 04:32:45;;;;;;;10.38;5.10;;;;;;;12.00;42.41;103217.22;5063454;28;20116;-75
2021/11/22 04:35:13;;;;;;;5.85;2.90;;;;;;;12.02;42.40;103226.03;5066179;28;20040;-79
2021/11/22 04:37:40;;;;;;;7.45;2.70;;;;;;;11.93;42.71;103222.91;5064492;28;20024;-70
2021/11/22 04:40:09;;;;;;;8.23;3.67;;;;;;;12.09;42.04;103221.13;5065365;28;20029;-70
2021/11/22 04:42:34;;;;;;;12.13;3.28;;;;;;;11.96;42.46;103224.31;5061628;28;20039;-70
2021/11/22 04:45:00;;;;;;;6.15;1.95;;;;;;;11.90;42.44;103237.16;5064275;28;20028;-70
2021/11/22 04:47:25;;;;;;;5.38;2.25;;;;;;;11.91;42.32;103229.75;5064519;28;20016;-70
2021/11/22 04:49:52;;;;;;;6.53;2.63;;;;;;;11.84;42.50;103226.41;5062221;28;20044;-70
2021/11/22 04:52:18;;;;;;;8.48;2.60;;;;;;;11.89;42.34;103229.19;5064365;28;20082;-70
2021/11/22 04:54:45;;;;;;;7.45;2.50;;;;;;;11.90;42.35;103234.41;5065335;28;20137;-70
2021/11/22 04:57:11;;;;;;;8.32;2.63;;;;;;;11.94;42.40;103240.22;5071630;28;20106;-69
2021/11/22 04:59:37;;;;;;;7.32;2.20;;;;;;;11.94;42.20;103243.78;5063568;28;20059;-70
2021/11/22 05:02:04;;;;;;;7.70;2.55;;;;;;;11.92;42.41;103248.66;5064279;28;20017;-71
2021/11/22 05:04:30;;;;;;;7.70;3.28;;;;;;;11.88;42.57;103249.47;5063663;28;21291;-71
2021/11/22 05:06:56;;;;;;;7.38;3.00;;;;;;;11.96;42.46;103254.47;5059553;28;20021;-69
2021/11/22 05:09:22;;;;;;;9.15;3.78;;;;;;;11.96;42.47;103251.72;5064433;28;20020;-71
2021/11/22 05:11:49;;;;;;;9.70;4.40;;;;;;;11.97;42.50;103252.53;5067977;28;20029;-75
2021/11/22 05:14:15;;;;;;;9.70;4.68;;;;;;;11.91;42.67;103254.41;5054210;28;20387;-77
2021/11/22 05:16:42;;;;;;;8.20;3.92;;;;;;;11.80;42.97;103261.72;5063821;28;20102;-71
2021/11/22 05:19:10;;;;;;;9.98;2.95;;;;;;;11.72;43.14;103258.59;5061591;28;20020;-80
2021/11/22 05:21:35;;;;;;;5.32;2.40;;;;;;;11.64;43.48;103268.13;5065005;28;20024;-70
2021/11/22 05:24:01;;;;;;;7.43;2.50;;;;;;;11.73;43.16;103271.19;5061920;28;20033;-71
2021/11/22 05:26:29;;;;;;;7.82;2.00;;;;;;;11.72;43.31;103266.81;5064190;28;20021;-70
2021/11/22 05:28:55;;;;;;;9.07;2.40;;;;;;;11.72;43.35;103261.34;5064884;28;20027;-71
2021/11/22 05:31:23;;;;;;;7.53;2.45;;;;;;;11.76;43.21;103256.97;5063198;28;20484;-70
2021/11/22 05:33:49;;;;;;;5.10;1.70;;;;;;;11.65;43.44;103264.28;5062573;28;20033;-78
2021/11/22 05:36:14;;;;;;;6.97;1.70;;;;;;;11.66;43.38;103271.41;5064410;28;20501;-71
2021/11/22 05:38:40;;;;;;;9.10;2.30;;;;;;;11.60;43.42;103280.66;5063301;28;20017;-70
2021/11/22 05:41:06;;;;;;;6.80;1.80;;;;;;;11.55;43.34;103280.59;5061550;28;20459;-70
2021/11/22 05:43:31;;;;;;;5.72;2.17;;;;;;;11.60;43.13;103281.47;5064723;28;20463;-72
2021/11/22 05:45:57;;;;;;;12.23;2.47;;;;;;;11.56;43.21;103288.56;5062686;28;20042;-78
2021/11/22 05:48:23;;;;;;;8.02;2.72;;;;;;;11.54;43.35;103290.72;5061800;28;20448;-79
2021/11/22 05:50:53;;;;;;;4.65;2.33;;;;;;;11.50;43.14;103291.50;5064024;28;20056;-71
2021/11/22 05:53:18;;;;;;;;;;;;;;;11.31;43.48;103288.28;5060750;28;20111;-70
2021/11/22 05:55:45;;;;;;;7.57;2.83;;;;;;;11.43;43.19;103288.97;5062742;28;20003;-77
2021/11/22 05:58:13;;;;;;;6.28;2.42;;;;;;;11.45;43.23;103289.53;5063784;28;20037;-71
2021/11/22 06:00:40;;;;;;;6.40;2.22;;;;;;;11.42;43.19;103292.78;5053820;28;20454;-71
2021/11/22 06:03:07;;;;;;;13.23;2.67;;;;;;;11.42;43.33;103291.97;5062118;28;20051;-70
2021/11/22 06:05:33;;;;;;;9.27;3.08;;;;;;;11.48;43.28;103296.38;5063581;28;20040;-71
2021/11/22 06:07:59;;;;;;;7.72;3.10;;;;;;;11.48;43.30;103291.75;5061896;28;20052;-71
2021/11/22 06:10:25;;;;;;;10.25;3.47;;;;;;;11.48;43.31;103296.38;5061535;28;20025;-77
2021/11/22 06:12:51;;;;;;;8.20;3.05;;;;;;;11.42;43.34;103295.53;5063365;28;20036;-71
2021/11/22 06:15:17;;;;;;;8.48;3.83;;;;;;;11.40;43.50;103298.50;5061458;28;20021;-71
2021/11/22 06:17:42;;;;;;;11.75;4.65;;;;;;;11.47;43.33;103297.47;5061428;28;20062;-70
2021/11/22 06:20:09;;;;;;;12.80;5.57;;;;;;;11.48;43.27;103296.38;5058295;28;20059;-70
2021/11/22 06:22:35;;;;;;;9.00;5.03;;;;;;;11.38;43.52;103303.41;5053332;28;20025;-70
2021/11/22 06:25:00;;;;;;;7.88;4.18;;;;;;;11.39;43.50;103298.75;5052927;28;20098;-71
2021/11/22 06:27:26;;;;;;;6.47;3.25;;;;;;;11.43;43.50;103304.56;5052995;28;20131;-71
2021/11/22 06:29:52;;;;;;;6.38;2.92;;;;;;;11.40;43.42;103305.88;5052850;28;20036;-79
2021/11/22 06:32:18;;;;;;;7.65;2.90;;;;;;;11.41;43.49;103315.78;5052660;28;20048;-71
2021/11/22 06:34:44;;;;;;;10.13;3.20;;;;;;;11.31;43.55;103316.47;5051378;28;20075;-71
2021/11/22 06:37:10;;;;;;;9.02;3.80;;;;;;;11.30;43.92;103301.13;5052748;28;20104;-71
2021/11/22 06:39:37;;;;;;;6.22;3.22;;;;;;;11.33;43.64;103325.25;5052685;28;20052;-71
2021/11/22 06:42:03;;;;;;;9.35;4.13;;;;;;;11.28;43.72;103321.63;5051500;28;20029;-70
2021/11/22 06:44:28;;;;;;;9.63;3.42;;;;;;;11.31;43.80;103321.13;5051332;28;20031;-72
2021/11/22 06:46:54;;;;;;;11.52;4.30;;;;;;;11.28;43.76;103316.16;5052461;28;20464;-71
2021/11/22 06:49:19;;;;;;;7.72;4.03;;;;;;;11.29;43.79;103329.59;5052642;28;20434;-71
2021/11/22 06:51:48;;;;;;;14.40;5.20;;;;;;;11.32;43.76;103331.81;5051277;28;20029;-70
2021/11/22 06:54:14;;;;;;;10.30;5.13;;;;;;;11.37;43.92;103342.00;5052408;28;20047;-70
2021/11/22 06:56:42;;;;;;;11.68;6.47;;;;;;;11.36;44.17;103335.69;5052809;28;20037;-76
2021/11/22 06:59:08;;;;;;;11.32;4.97;;;;;;;11.56;43.49;103335.13;5052479;28;20036;-71
2021/11/22 07:01:33;;;;;;;10.55;4.93;;;;;;;11.54;43.83;103342.75;5052650;28;20041;-70
2021/11/22 07:03:59;;;;;;;15.02;3.53;;;;;;;11.58;43.75;103341.16;5052374;28;20471;-70
2021/11/22 07:06:24;;;;;;;11.02;3.17;;;;;;;11.63;43.72;103337.63;5052420;28;20032;-71
2021/11/22 07:08:50;;;;;;;7.55;2.80;;;;;;;11.70;43.78;103340.19;5052619;28;20519;-75
2021/11/22 07:11:16;;;;;;;5.80;2.55;;;;;;;11.73;43.72;103336.94;5052984;28;20122;-71
2021/11/22 07:13:41;;;;;;;9.35;2.58;;;;;;;11.55;43.86;103332.63;5070960;28;20074;-71
2021/11/22 07:16:07;;;;;;;8.18;2.95;;;;;;;11.45;44.34;103327.84;5069020;28;20036;-71
2021/11/22 07:18:33;;;;;;;8.80;2.97;;;;;;;11.54;44.24;103326.31;5072357;28;20115;-70
2021/11/22 07:20:59;;;;;;;8.55;2.45;;;;;;;11.58;44.13;103338.44;5072306;28;20029;-70
2021/11/22 07:23:25;;;;;;;8.23;2.67;;;;;;;11.66;43.90;103340.69;5072244;28;20047;-71
2021/11/22 07:25:53;;;;;;;6.10;2.42;;;;;;;11.62;44.03;103355.16;5072288;28;20033;-71
2021/11/22 07:28:20;;;;;;;8.05;2.25;;;;;;;11.49;43.99;103358.31;5072628;28;20096;-70
2021/11/22 07:30:47;;;;;;;7.60;2.03;;;;;;;11.39;43.98;103364.47;5076306;28;20056;-70
2021/11/22 07:33:13;;;;;;;10.20;3.95;;;;;;;11.38;44.12;103368.28;5076162;28;20041;-71
2021/11/22 07:35:40;;;;;;;6.78;2.55;;;;;;;11.42;44.07;103372.19;5076120;28;20471;-70
2021/11/22 07:38:06;;;;;;;8.48;3.45;;;;;;;11.45;44.24;103371.66;5076098;28;20029;-71
2021/11/22 07:40:32;;;;;;;5.55;2.45;;;;;;;11.48;44.22;103373.06;5076082;28;20037;-71
2021/11/22 07:42:57;;;;;;;8.32;2.78;;;;;;;11.48;44.23;103364.84;5076282;28;20036;-72
2021/11/22 07:45:25;;;;;;;11.95;2.47;;;;;;;11.37;44.41;103372.94;5075957;28;20586;-70
2021/11/22 07:47:51;;;;;;;9.75;2.45;;;;;;;11.41;44.27;103376.00;5075986;28;20029;-70
2021/11/22 07:50:21;;;;;;;10.18;2.17;;;;;;;11.34;44.44;103380.84;5076289;28;20020;-72
2021/11/22 07:52:47;;;;;;;7.20;2.47;;;;;;;11.36;44.32;103390.44;5075865;28;20053;-72
2021/11/22 07:55:13;;;;;;;11.18;2.35;;;;;;;11.43;44.20;103387.53;5075794;28;20032;-72
2021/11/22 07:57:39;;;;;;;6.45;2.20;;;;;;;11.49;44.07;103382.94;5076058;28;20103;-70
2021/11/22 08:00:10;;;;;;;11.32;2.40;;;;;;;11.54;43.87;103385.72;5075795;28;20514;-71
2021/11/22 08:02:35;;;;;;;7.35;2.17;;;;;;;11.57;43.85;103383.31;5075690;28;20020;-70
2021/11/22 08:05:05;;;;;;;5.35;2.15;;;;;;;11.48;44.03;103393.03;5075640;28;20028;-71
2021/11/22 08:07:32;;;;;;;8.90;2.33;;;;;;;11.33;44.29;103388.19;5075885;28;20086;-70
2021/11/22 08:10:00;;;;;;;7.22;2.70;;;;;;;11.38;44.01;103387.44;5075509;28;20032;-71
2021/11/22 08:12:27;;;;;;;12.43;2.38;;;;;;;11.35;44.13;103397.00;5075406;28;20049;-71
2021/11/22 08:14:58;;;;;;;10.43;3.17;;;;;;;11.37;44.45;103402.22;5075374;28;20112;-70
2021/11/22 08:17:23;;;;;;;9.18;3.28;;;;;;;11.42;44.49;103410.50;5075452;28;20073;-73
2021/11/22 08:19:50;;;;;;;7.72;2.33;;;;;;;11.44;44.45;103408.34;5075338;28;20461;-74
2021/11/22 08:22:15;;;;;;;15.55;7.05;;;;;;;11.47;44.35;103402.34;5075244;28;20108;-71
2021/11/22 08:24:41;;;;;;;9.07;4.15;;;;;;;11.49;44.29;103411.16;5074569;28;20107;-70
2021/11/22 08:27:07;;;;;;;10.15;3.40;;;;;;;11.39;44.53;103416.47;5073675;28;20522;-70
2021/11/22 08:29:34;;;;;;;11.18;2.60;;;;;;;11.50;44.19;103410.06;5074706;28;20032;-70
2021/11/22 08:31:59;;;;;;;10.43;3.30;;;;;;;11.45;44.30;103420.94;5073373;28;20494;-70
2021/11/22 08:34:26;;;;;;;8.90;3.13;;;;;;;11.53;44.11;103425.97;5073781;28;20029;-70
2021/11/22 08:36:52;;;;;;;7.90;2.53;;;;;;;11.47;44.41;103426.16;5074036;28;20062;-70
2021/11/22 08:39:17;;;;;;;9.38;5.47;;;;;;;11.51;44.32;103424.59;5073495;28;20475;-70
2021/11/22 08:41:43;;;;;;;8.23;2.80;;;;;;;11.59;44.22;103427.69;5073629;28;20107;-70
2021/11/22 08:44:08;;;;;;;8.27;3.38;;;;;;;11.62;44.33;103420.88;5073834;28;20016;-70
2021/11/22 08:46:38;;;;;;;6.20;3.33;;;;;;;11.64;44.18;103427.78;5074469;28;20031;-70
2021/11/22 08:49:04;;;;;;;7.13;2.63;;;;;;;11.69;44.08;103440.69;5074881;28;20024;-71
2021/11/22 08:51:30;;;;;;;8.07;3.47;;;;;;;11.74;44.07;103439.94;5074901;28;20035;-77
2021/11/22 08:53:56;;;;;;;9.05;2.58;;;;;;;11.66;43.95;103439.28;5074943;28;20392;-71
2021/11/22 08:56:21;;;;;;;9.40;3.23;;;;;;;11.63;44.20;103437.06;5074397;28;20032;-70
2021/11/22 08:58:47;;;;;;;8.05;3.20;;;;;;;11.72;44.06;103440.19;5074674;28;20107;-70
2021/11/22 09:03:42;;;;;;;14.50;3.67;;;;;;;11.62;44.80;103429.09;5071255;27;1731757;-77
2021/11/22 09:06:07;;;;;;;9.40;3.20;;;;;;;11.65;44.85;103443.13;5109722;28;20024;-71
2021/11/22 09:08:33;;;;;;;8.43;2.70;;;;;;;11.84;44.48;103442.81;5109884;28;20084;-70
2021/11/22 09:10:59;;;;;;;5.70;2.63;;;;;;;11.91;44.23;103441.53;5110014;28;20378;-72
2021/11/22 09:13:24;;;;;;;5.13;2.88;;;;;;;11.98;44.26;103446.00;5110012;28;20428;-77
2021/11/22 09:15:50;;;;;;;7.60;2.92;;;;;;;12.05;44.27;103441.16;5110074;28;20020;-77
2021/11/22 09:18:16;;;;;;;9.80;3.47;;;;;;;12.04;44.48;103428.53;5109514;28;20023;-71
2021/11/22 09:20:41;;;;;;;7.00;2.88;;;;;;;12.17;44.56;103431.69;5109729;28;20059;-76
2021/11/22 09:23:07;;;;;;;10.90;3.28;;;;;;;12.27;44.49;103432.88;5109669;28;20069;-78
2021/11/22 09:25:35;;;;;;;9.13;3.20;;;;;;;12.48;44.02;103440.22;5109574;28;20027;-69
2021/11/22 09:28:01;;;;;;;7.82;2.65;;;;;;;12.48;44.07;103445.72;5109543;28;20176;-75
2021/11/22 09:30:27;;;;;;;7.55;3.78;;;;;;;12.61;44.18;103453.47;5109573;28;20031;-75
2021/11/22 09:32:53;;;;;;;6.95;2.95;;;;;;;12.66;44.12;103448.06;5109759;28;20024;-72
2021/11/22 09:35:20;;;;;;;10.88;3.35;;;;;;;12.66;44.32;103439.00;5109931;28;20031;-69
2021/11/22 09:37:46;;;;;;;5.60;2.47;;;;;;;12.65;44.69;103435.44;5109590;28;20027;-69
2021/11/22 09:40:12;;;;;;;12.07;2.88;;;;;;;12.81;44.36;103439.13;5109345;28;20095;-69
2021/11/22 09:42:37;;;;;;;7.55;3.00;;;;;;;12.97;44.05;103442.81;5109228;28;20035;-69
2021/11/22 09:45:05;;;;;;;14.43;3.85;;;;;;;12.97;44.40;103449.13;5089495;28;20036;-69
2021/11/22 09:47:32;;;;;;;6.68;2.88;;;;;;;13.10;44.03;103447.84;5089420;28;20106;-68
2021/11/22 09:49:57;;;;;;;5.03;2.58;;;;;;;13.11;44.37;103451.41;5089459;28;20016;-71
2021/11/22 09:52:24;;;;;;;12.00;3.28;;;;;;;13.10;44.50;103447.84;5090462;28;20029;-69
2021/11/22 09:54:50;;;;;;;13.73;3.33;;;;;;;13.30;44.15;103453.50;5108698;28;20031;-69
2021/11/22 09:57:16;;;;;;;8.32;2.58;;;;;;;13.26;44.29;103454.28;5106523;28;20383;-69
2021/11/22 09:59:43;;;;;;;9.13;3.10;;;;;;;13.42;44.25;103449.72;5108964;28;20028;-69
2021/11/22 10:02:09;;;;;;;7.22;3.05;;;;;;;13.54;44.06;103458.56;5108740;28;20055;-69
2021/11/22 10:04:35;;;;;;;8.13;3.05;;;;;;;13.68;43.94;103459.75;5109126;28;20015;-71
2021/11/22 10:07:06;;;;;;;11.90;3.65;;;;;;;13.67;44.02;103454.50;5109167;28;20099;-68
2021/11/22 10:09:35;;;;;;;6.68;3.00;;;;;;;13.73;44.05;103453.44;5108754;28;20535;-71
2021/11/22 10:12:22;;;;;;;6.13;3.13;;;;;;;13.89;43.95;103464.22;5108772;28;20032;-69
2021/11/22 10:14:57;;;;;;;12.65;3.97;;;;;;;14.00;43.65;103458.75;5095079;28;20032;-69
2021/11/22 10:17:34;;;;;;;7.00;3.17;;;;;;;14.09;43.82;103460.72;5093171;28;20107;-70
2021/11/22 10:20:09;;;;;;;10.98;3.22;;;;;;;14.24;43.61;103468.16;5092947;28;20482;-69
2021/11/22 10:23:09;;;;;;;7.82;3.60;;;;;;;14.28;43.89;103462.94;5094753;28;20470;-72
2021/11/22 10:25:37;;;;;;;7.18;2.30;;;;;;;14.44;43.59;103461.88;5050026;28;20218;-70
2021/11/22 10:28:16;;;;;;;7.03;2.60;;;;;;;14.43;43.61;103463.81;5094979;28;20505;-76
2021/11/22 10:30:45;;;;;;;10.35;2.85;;;;;;;14.57;43.63;103457.78;5095353;28;20020;-69
2021/11/22 10:33:13;;;;;;;9.53;3.10;;;;;;;14.54;43.59;103461.09;5095441;28;20085;-68
2021/11/22 10:35:40;;;;;;;7.70;2.70;;;;;;;14.55;44.02;103457.25;5095020;28;20020;-69
2021/11/22 10:38:15;;;;;;;10.07;2.75;;;;;;;14.60;43.92;103451.75;5095050;28;20024;-70
2021/11/22 10:40:44;;;;;;;7.93;2.88;;;;;;;14.78;43.53;103455.88;5094989;28;20595;-68
2021/11/22 10:43:10;;;;;;;6.78;3.38;;;;;;;14.89;43.49;103461.13;5094846;28;20067;-75
2021/11/22 10:45:42;;;;;;;10.70;3.85;;;;;;;14.83;43.76;103455.88;5094641;28;20039;-70
2021/11/22 10:48:23;;;;;;;7.72;2.72;;;;;;;14.97;43.53;103459.72;5094778;28;20027;-72
2021/11/22 10:51:11;;;;;;;10.90;2.88;;;;;;;14.72;44.17;103457.78;5093713;28;20024;-75
2021/11/22 10:53:37;;;;;;;8.02;2.67;;;;;;;14.94;43.89;103468.53;5092039;28;20032;-69
2021/11/22 10:56:06;;;;;;;11.48;3.05;;;;;;;14.99;43.70;103472.09;5094307;28;20043;-69
2021/11/22 10:58:56;;;;;;;7.47;3.35;;;;;;;15.20;43.34;103474.84;5094232;28;20035;-69
2021/11/22 11:01:21;;;;;;;6.03;2.13;;;;;;;15.44;42.80;103462.09;5092771;28;20051;-73
2021/11/22 11:03:55;;;;;;;7.32;2.28;;;;;;;15.49;42.63;103477.78;5094088;28;20491;-73
2021/11/22 11:06:40;;;;;;;12.55;3.10;;;;;;;15.41;42.97;103464.56;5092560;28;20413;-74
2021/11/22 11:09:10;;;;;;;11.02;2.38;;;;;;;15.44;42.89;103470.38;5089445;28;20024;-74
2021/11/22 11:11:35;;;;;;;9.00;2.15;;;;;;;15.52;42.56;103468.97;5094431;28;20486;-74
2021/11/22 11:14:14;;;;;;;11.80;3.05;;;;;;;15.41;42.96;103465.41;5094332;28;20032;-74
2021/11/22 11:16:41;;;;;;;6.68;2.35;;;;;;;15.41;43.34;103465.41;5094314;28;20063;-74
2021/11/22 11:19:11;;;;;;;8.93;2.90;;;;;;;15.46;43.28;103472.84;5094176;28;20080;-76
2021/11/22 11:21:46;;;;;;;10.60;2.72;;;;;;;15.54;42.91;103459.31;5094111;28;20032;-73
2021/11/22 11:24:13;;;;;;;17.17;3.90;;;;;;;15.75;42.68;103470.31;5093529;28;20028;-73